Time;durP1;ratioP1;P1;durP2;ratioP2;P2;SDS_P1;SDS_P2;PMS_P1;PMS_P2;Temp;Humidity;BMP_temperature;BMP_pressure;BME280_temperature;BME280_humidity;BME280_pressure;Samples;Min_cycle;Max_cycle;Signal;HPM_P1;HPM_P2
2023/04/12 00:00:26;;;;;;;;;1.25;1.25;;;;;22.14;41.00;99787.66;5066362;27;45374;-70
2023/04/12 00:02:53;;;;;;;;;2.75;2.00;;;;;22.12;40.59;99770.97;5059368;27;45529;-70
2023/04/12 00:05:21;;;;;;;;;2.00;1.00;;;;;22.12;40.93;99769.16;5062675;28;45325;-70
2023/04/12 00:07:57;;;;;;;;;2.00;1.00;;;;;22.14;40.76;99777.00;5059739;27;47564;-70
2023/04/12 00:10:22;;;;;;;;;1.00;1.00;;;;;22.15;40.52;99773.34;5078097;27;45982;-70
2023/04/12 00:12:48;;;;;;;;;0.75;0.75;;;;;22.13;40.52;99765.53;5077421;27;45163;-71
2023/04/12 00:15:13;;;;;;;;;2.00;1.00;;;;;22.15;40.65;99752.88;5067395;27;45338;-70
2023/04/12 00:17:39;;;;;;;;;4.50;2.50;;;;;22.16;40.73;99748.41;5054710;27;46240;-70
2023/04/12 00:20:12;;;;;;;;;1.50;1.50;;;;;22.17;40.42;99756.25;5081348;27;45475;-70
2023/04/12 00:22:38;;;;;;;;;2.25;2.25;;;;;22.16;40.63;99743.91;5065277;27;45445;-71
2023/04/12 00:25:04;;;;;;;;;1.75;1.75;;;;;22.15;40.60;99741.38;5087598;27;46033;-70
2023/04/12 00:27:30;;;;;;;;;2.25;1.75;;;;;22.15;40.37;99731.56;5088673;27;45446;-70
2023/04/12 00:29:55;;;;;;;;;2.00;2.00;;;;;22.17;40.38;99720.78;5096419;27;45406;-70
2023/04/12 00:32:20;;;;;;;;;2.00;2.00;;;;;22.15;40.38;99718.25;5087407;27;68597;-70
2023/04/12 00:34:46;;;;;;;;;3.00;2.50;;;;;22.17;40.67;99708.28;5092201;27;72001;-70
2023/04/12 00:37:11;;;;;;;;;1.75;1.50;;;;;22.19;40.44;99716.13;5092097;27;73779;-70
2023/04/12 00:39:36;;;;;;;;;4.00;2.00;;;;;22.18;40.26;99701.13;5090010;27;71107;-69
2023/04/12 00:42:03;;;;;;;;;3.25;1.75;;;;;22.18;40.80;99698.47;5090424;27;46218;-70
2023/04/12 00:44:28;;;;;;;;;2.50;2.00;;;;;22.19;40.45;99700.97;5069605;27;46282;-69
2023/04/12 00:46:54;;;;;;;;;2.00;2.00;;;;;22.20;40.36;99691.16;5091401;27;45482;-69
2023/04/12 00:49:19;;;;;;;;;1.00;1.00;;;;;22.18;40.59;99693.13;5078888;27;70198;-69
2023/04/12 00:51:44;;;;;;;;;2.00;2.00;;;;;22.18;41.00;99677.97;5077606;27;68305;-69
2023/04/12 00:54:10;;;;;;;;;1.50;1.50;;;;;22.21;40.33;99676.03;5093181;27;45489;-69
2023/04/12 00:56:36;;;;;;;;;2.25;1.75;;;;;22.19;40.49;99669.00;5071812;27;45447;-69
2023/04/12 00:59:02;;;;;;;;;3.00;2.00;;;;;22.19;40.74;99663.69;5074528;27;45481;-69
2023/04/12 01:01:27;;;;;;;;;1.75;1.75;;;;;22.21;40.62;99649.38;5058493;27;46404;-69
2023/04/12 01:03:53;;;;;;;;;1.50;1.00;;;;;22.17;40.65;99643.50;5081740;27;45490;-69
2023/04/12 01:06:37;;;;;;;;;2.25;1.00;;;;;22.19;40.36;99644.19;5059323;27;46920;-70
2023/04/12 01:09:10;;;;;;;;;1.00;1.00;;;;;22.19;40.30;99620.19;5100446;27;45968;-69
2023/04/12 01:11:44;;;;;;;;;1.25;1.25;;;;;22.17;40.13;99604.34;5085574;27;45275;-70
2023/04/12 01:14:27;;;;;;;;;0.75;0.25;;;;;22.19;40.84;99599.72;5093239;27;45510;-70
2023/04/12 01:16:57;;;;;;;;;2.00;0.50;;;;;22.17;40.34;99600.84;5070428;27;45360;-70
2023/04/12 01:19:36;;;;;;;;;1.25;1.25;;;;;22.18;40.60;99595.34;5070079;27;45369;-70
2023/04/12 01:22:14;;;;;;;;;1.50;0.25;;;;;22.19;40.46;99593.56;5092884;27;46169;-70
2023/04/12 01:24:58;;;;;;;;;1.50;0.00;;;;;22.19;40.37;99588.22;5090873;27;45496;-70
2023/04/12 01:27:42;;;;;;;;;1.25;0.25;;;;;22.18;40.72;99583.88;5073597;27;46550;-70
2023/04/12 01:30:11;;;;;;;;;1.00;1.00;;;;;22.17;40.83;99576.88;5074834;27;45787;-70
2023/04/12 01:32:38;;;;;;;;;2.00;0.50;;;;;22.19;40.49;99574.91;5094895;27;45332;-70
2023/04/12 01:35:06;;;;;;;;;2.25;0.25;;;;;22.17;40.62;99561.72;5074427;27;45507;-70
2023/04/12 01:37:32;;;;;;;;;1.25;1.25;;;;;22.18;40.23;99568.72;5069847;27;45482;-70
2023/04/12 01:39:57;;;;;;;;;0.75;0.75;;;;;22.18;40.39;99555.38;5072632;27;54078;-70
2023/04/12 01:42:23;;;;;;;;;1.00;1.00;;;;;22.22;40.46;99553.25;5095094;27;45512;-71
2023/04/12 01:44:49;;;;;;;;;2.00;2.00;;;;;22.21;40.41;99554.28;5092810;27;69298;-70
2023/04/12 01:47:14;;;;;;;;;1.00;1.00;;;;;22.20;40.30;99531.25;5094296;27;45706;-70
2023/04/12 01:49:49;;;;;;;;;1.00;1.00;;;;;22.22;40.44;99531.94;5081405;27;45240;-70
2023/04/12 01:52:19;;;;;;;;;0.25;0.25;;;;;22.22;40.57;99529.28;5071505;27;47260;-70
2023/04/12 01:54:48;;;;;;;;;1.25;1.00;;;;;22.23;40.29;99524.81;5072517;27;45461;-70
2023/04/12 01:57:14;;;;;;;;;0.25;0.25;;;;;22.23;40.25;99516.81;5073798;27;46428;-70
2023/04/12 01:59:43;;;;;;;;;0.50;0.25;;;;;22.25;40.14;99521.00;5070884;27;71323;-70
2023/04/12 02:02:09;;;;;;;;;0.25;0.25;;;;;22.25;40.48;99520.19;5070019;27;45493;-70
2023/04/12 02:04:36;;;;;;;;;0.25;0.25;;;;;22.24;40.03;99508.69;5076896;27;45268;-70
2023/04/12 02:07:02;;;;;;;;;1.00;1.00;;;;;22.25;40.27;99512.19;5060229;27;47105;-70
2023/04/12 02:09:27;;;;;;;;;1.75;1.75;;;;;22.22;40.55;99497.31;5079366;27;45680;-69
2023/04/12 02:11:53;;;;;;;;;1.00;1.00;;;;;22.26;40.61;99497.88;5072194;27;69167;-70
2023/04/12 02:14:18;;;;;;;;;1.00;0.50;;;;;22.26;40.40;99497.88;5093876;27;71509;-70
2023/04/12 02:16:44;;;;;;;;;0.00;0.00;;;;;22.24;40.54;99479.38;5076771;27;74568;-70
2023/04/12 02:19:11;;;;;;;;;2.75;0.50;;;;;22.26;40.18;99477.38;5071234;27;45807;-70
2023/04/12 02:21:43;;;;;;;;;1.50;1.00;;;;;22.26;40.71;99477.38;5074057;27;45400;-70
2023/04/12 02:24:10;;;;;;;;;1.00;1.00;;;;;22.26;40.39;99468.56;5074819;27;45510;-69
2023/04/12 02:26:37;;;;;;;;;1.00;1.00;;;;;22.26;40.19;99460.56;5095162;27;46059;-70
2023/04/12 02:29:03;;;;;;;;;1.00;0.00;;;;;22.25;40.22;99454.38;5089802;27;45915;-70
2023/04/12 02:31:31;;;;;;;;;1.25;1.00;;;;;22.25;40.46;99453.53;5052210;27;45523;-70
2023/04/12 02:33:57;;;;;;;;;0.00;0.00;;;;;22.24;40.18;99444.72;5077122;27;45927;-70
2023/04/12 02:36:22;;;;;;;;;0.75;0.00;;;;;22.25;40.59;99437.56;5056153;27;46776;-70
2023/04/12 02:38:50;;;;;;;;;0.75;0.25;;;;;22.25;40.08;99434.88;5079087;27;45458;-70
2023/04/12 02:41:19;;;;;;;;;0.00;0.00;;;;;22.25;40.35;99433.06;5096135;27;45274;-70
2023/04/12 02:43:45;;;;;;;;;0.00;0.00;;;;;22.21;40.12;99420.19;5078842;27;45541;-70
2023/04/12 02:46:18;;;;;;;;;1.75;1.00;;;;;22.24;40.47;99417.22;5057585;27;47156;-70
2023/04/12 02:48:47;;;;;;;;;0.25;0.25;;;;;22.24;40.54;99409.22;5058841;27;45534;-70
2023/04/12 02:51:13;;;;;;;;;0.00;0.00;;;;;22.24;40.27;99402.09;5076055;27;45632;-70
2023/04/12 02:53:38;;;;;;;;;0.75;0.25;;;;;22.23;40.51;99403.06;5082954;27;45423;-70
2023/04/12 02:56:04;;;;;;;;;1.00;1.00;;;;;22.24;40.16;99398.56;5076011;27;65145;-70
2023/04/12 02:58:29;;;;;;;;;0.25;0.00;;;;;22.23;40.72;99394.22;5074800;27;45527;-70
2023/04/12 03:00:56;;;;;;;;;0.00;0.00;;;;;22.27;40.49;99396.47;5073062;27;45370;-70
2023/04/12 03:03:21;;;;;;;;;0.25;0.25;;;;;22.27;40.32;99396.47;5073174;27;45398;-70
2023/04/12 03:05:47;;;;;;;;;0.50;0.00;;;;;22.27;40.44;99393.78;5068489;27;45565;-70
2023/04/12 03:08:13;;;;;;;;;0.75;0.75;;;;;22.27;40.57;99396.47;5061586;27;45640;-70
2023/04/12 03:10:38;;;;;;;;;0.00;0.00;;;;;22.28;40.56;99395.50;5094668;27;45700;-70
2023/04/12 03:13:04;;;;;;;;;0.75;0.50;;;;;22.28;40.69;99397.31;5089282;27;53548;-70
2023/04/12 03:15:30;;;;;;;;;0.00;0.00;;;;;22.27;40.14;99396.47;5074393;27;45451;-70
2023/04/12 03:17:55;;;;;;;;;0.00;0.00;;;;;22.26;40.03;99404.59;5096740;27;45458;-70
2023/04/12 03:20:23;;;;;;;;;0.00;0.00;;;;;22.29;40.14;99422.97;5073484;27;51386;-70
2023/04/12 03:22:49;;;;;;;;;0.00;0.00;;;;;22.32;40.15;99436.00;5093791;27;45379;-69
2023/04/12 03:25:16;;;;;;;;;1.25;0.00;;;;;22.31;40.56;99439.66;5086173;27;45385;-70
2023/04/12 03:27:42;;;;;;;;;0.00;0.00;;;;;22.31;40.19;99448.50;5085952;27;45725;-70
2023/04/12 03:30:10;;;;;;;;;0.75;0.00;;;;;22.30;40.49;99438.81;5068069;28;45412;-70
2023/04/12 03:32:36;;;;;;;;;1.00;0.25;;;;;22.31;40.43;99421.84;5068666;27;45573;-70
2023/04/12 03:35:02;;;;;;;;;0.00;0.00;;;;;22.32;40.21;99428.00;5078163;27;45413;-70
2023/04/12 03:37:27;;;;;;;;;0.00;0.00;;;;;22.31;40.51;99427.19;5074623;27;47320;-70
2023/04/12 03:39:53;;;;;;;;;0.00;0.00;;;;;22.32;40.17;99428.84;5070111;28;45511;-70
2023/04/12 03:42:18;;;;;;;;;3.00;0.50;;;;;22.28;40.45;99414.16;5049992;27;61407;-70
2023/04/12 03:44:43;;;;;;;;;0.00;0.00;;;;;22.31;40.19;99413.84;5065277;27;48224;-70
2023/04/12 03:47:10;;;;;;;;;0.00;0.00;;;;;22.31;40.50;99421.84;5063262;27;45701;-70
2023/04/12 03:49:37;;;;;;;;;0.00;0.00;;;;;22.31;40.49;99424.50;5072595;27;45368;-69
2023/04/12 03:52:03;;;;;;;;;0.00;0.00;;;;;22.33;40.38;99416.38;5092288;27;46742;-69
2023/04/12 03:54:28;;;;;;;;;0.00;0.00;;;;;22.33;40.00;99411.88;5073305;27;47141;-69
2023/04/12 03:56:55;;;;;;;;;1.50;0.00;;;;;22.30;40.50;99404.16;5065195;27;72959;-69
2023/04/12 03:59:20;;;;;;;;;3.25;0.00;;;;;22.30;40.57;99406.84;5087583;27;45471;-69
2023/04/12 04:01:46;;;;;;;;;1.25;0.00;;;;;22.32;40.42;99404.84;5061783;27;65673;-72
2023/04/12 04:04:11;;;;;;;;;0.00;0.00;;;;;22.32;40.63;99399.53;5077134;27;45512;-70
2023/04/12 04:06:37;;;;;;;;;0.00;0.00;;;;;22.32;40.53;99404.84;5062621;27;45403;-70
2023/04/12 04:09:03;;;;;;;;;0.00;0.00;;;;;22.32;40.61;99404.84;5100181;27;45598;-70
2023/04/12 04:11:28;;;;;;;;;0.25;0.00;;;;;22.31;40.54;99403.19;5086249;27;45351;-70
2023/04/12 04:13:53;;;;;;;;;1.50;0.00;;;;;22.31;40.56;99400.53;5081175;27;46231;-70
2023/04/12 04:16:19;;;;;;;;;0.00;0.00;;;;;22.33;40.70;99400.38;5074539;27;56549;-70
2023/04/12 04:18:44;;;;;;;;;1.00;0.00;;;;;22.31;40.08;99386.34;5055601;27;45300;-70
2023/04/12 04:21:10;;;;;;;;;1.00;0.00;;;;;22.32;40.43;99388.84;5071576;27;45391;-69
2023/04/12 04:23:38;;;;;;;;;0.00;0.00;;;;;22.33;40.14;99384.38;5076745;27;68486;-69
2023/04/12 04:26:10;;;;;;;;;0.00;0.00;;;;;22.33;40.26;99382.56;5077502;27;45357;-70
2023/04/12 04:28:49;;;;;;;;;0.00;0.00;;;;;22.34;40.30;99384.22;5074476;28;45283;-69
2023/04/12 04:31:16;;;;;;;;;0.00;0.00;;;;;22.29;40.19;99378.53;5060886;27;45513;-69
2023/04/12 04:33:41;;;;;;;;;0.00;0.00;;;;;22.32;40.45;99378.19;5080287;27;47308;-70
2023/04/12 04:36:08;;;;;;;;;0.00;0.00;;;;;22.32;40.46;99386.19;5093565;27;45460;-69
2023/04/12 04:38:33;;;;;;;;;0.75;0.00;;;;;22.35;40.51;99391.22;5057468;28;45750;-70
2023/04/12 04:41:01;;;;;;;;;0.00;0.00;;;;;22.33;40.43;99382.56;5075178;27;45260;-70
2023/04/12 04:43:29;;;;;;;;;0.00;0.00;;;;;22.37;40.13;99377.75;5074678;27;45484;-70
2023/04/12 04:45:55;;;;;;;;;2.50;0.00;;;;;22.33;40.35;99379.06;5073232;27;45649;-70
2023/04/12 04:48:21;;;;;;;;;0.00;0.00;;;;;22.33;40.51;99382.56;5069769;27;46026;-70
2023/04/12 04:50:46;;;;;;;;;0.00;0.00;;;;;22.32;40.02;99377.38;5079610;27;45609;-69
2023/04/12 04:53:12;;;;;;;;;1.75;0.00;;;;;22.36;39.96;99379.59;5076079;27;48674;-69
2023/04/12 04:55:37;;;;;;;;;0.00;0.00;;;;;22.37;40.55;99375.91;5082298;27;45345;-69
2023/04/12 04:58:05;;;;;;;;;0.50;0.00;;;;;22.37;40.31;99381.25;5097530;27;45535;-69
2023/04/12 05:00:30;;;;;;;;;0.00;0.00;;;;;22.39;40.14;99383.78;5090412;27;45593;-68
2023/04/12 05:02:55;;;;;;;;;0.00;0.00;;;;;22.39;40.22;99366.94;5062661;27;59490;-69
2023/04/12 05:05:24;;;;;;;;;0.25;0.00;;;;;22.37;40.40;99362.59;5095316;27;47021;-70
2023/04/12 05:07:50;;;;;;;;;0.00;0.00;;;;;22.39;39.95;99377.59;5068859;27;45457;-70
2023/04/12 05:10:15;;;;;;;;;0.00;0.00;;;;;22.40;40.05;99369.47;5096673;27;71640;-70
2023/04/12 05:12:41;;;;;;;;;2.00;0.00;;;;;22.37;40.61;99375.09;5065920;27;47178;-70
2023/04/12 05:15:06;;;;;;;;;0.00;0.00;;;;;22.39;40.49;99381.09;5070157;27;56224;-70
2023/04/12 05:17:33;;;;;;;;;0.00;0.00;;;;;22.40;40.49;99381.94;5086487;27;45433;-69
2023/04/12 05:19:59;;;;;;;;;0.00;0.00;;;;;22.39;40.17;99380.28;5091228;27;45515;-70
2023/04/12 05:22:24;;;;;;;;;0.00;0.00;;;;;22.36;40.30;99368.94;5069459;27;47202;-69
2023/04/12 05:24:50;;;;;;;;;0.00;0.00;;;;;22.36;40.15;99387.59;5075692;27;45299;-69
2023/04/12 05:27:16;;;;;;;;;0.00;0.00;;;;;22.40;40.07;99387.25;5085441;27;65684;-69
2023/04/12 05:29:45;;;;;;;;;0.00;0.00;;;;;22.36;40.28;99398.25;5055627;27;45348;-70
2023/04/12 05:32:11;;;;;;;;;0.00;0.00;;;;;22.37;40.49;99413.25;5087884;27;45596;-69
2023/04/12 05:34:36;;;;;;;;;0.00;0.00;;;;;22.36;40.21;99424.03;5079935;27;45399;-68
2023/04/12 05:37:02;;;;;;;;;0.00;0.00;;;;;22.37;39.97;99436.41;5091646;27;45623;-71
2023/04/12 05:39:28;;;;;;;;;0.00;0.00;;;;;22.37;40.26;99434.56;5077308;28;45368;-69
2023/04/12 05:41:54;;;;;;;;;0.00;0.00;;;;;22.35;39.97;99443.72;5088114;27;45494;-70
2023/04/12 05:44:19;;;;;;;;;0.00;0.00;;;;;22.36;40.15;99442.69;5066238;27;70010;-70
2023/04/12 05:46:45;;;;;;;;;0.00;0.00;;;;;22.28;40.19;99432.81;5068038;27;45178;-71
2023/04/12 05:49:11;;;;;;;;;0.00;0.00;;;;;22.37;40.30;99444.41;5065675;27;45538;-72
2023/04/12 05:51:36;;;;;;;;;2.00;0.00;;;;;22.36;39.93;99446.22;5067592;27;46652;-72
2023/04/12 05:54:05;;;;;;;;;0.00;0.00;;;;;22.35;40.50;99449.88;5092849;27;61882;-71
2023/04/12 05:56:30;;;;;;;;;0.00;0.00;;;;;22.39;40.01;99457.56;5060874;27;45347;-69
2023/04/12 05:58:55;;;;;;;;;0.00;0.00;;;;;22.39;40.54;99458.41;5078079;27;45706;-71
2023/04/12 06:01:21;;;;;;;;;0.00;0.00;;;;;22.33;40.39;99457.19;5072884;27;74266;-71
2023/04/12 06:03:47;;;;;;;;;0.00;0.00;;;;;22.40;40.31;99485.91;5083156;27;70517;-71
2023/04/12 06:06:12;;;;;;;;;0.25;0.00;;;;;22.39;40.17;99485.06;5094234;27;45346;-67
2023/04/12 06:08:38;;;;;;;;;1.00;0.00;;;;;22.35;40.54;99481.03;5080692;27;45453;-69
2023/04/12 06:11:04;;;;;;;;;0.00;0.00;;;;;22.41;40.59;99480.41;5084069;27;45393;-71
2023/04/12 06:13:30;;;;;;;;;0.25;0.00;;;;;22.42;40.25;99491.94;5056832;27;46389;-67
2023/04/12 06:15:55;;;;;;;;;2.00;0.75;;;;;22.42;39.91;99481.28;5074505;27;46034;-68
2023/04/12 06:18:20;;;;;;;;;1.00;1.00;;;;;22.40;40.38;99470.75;5064914;27;67057;-67
2023/04/12 06:20:46;;;;;;;;;0.00;0.00;;;;;22.37;39.82;99463.06;5061115;27;47160;-67
2023/04/12 06:23:11;;;;;;;;;1.00;0.00;;;;;22.36;39.70;99467.56;5088555;27;71973;-67
2023/04/12 06:25:37;;;;;;;;;1.00;0.25;;;;;22.33;39.41;99473.19;5066370;28;45333;-66
2023/04/12 06:28:03;;;;;;;;;0.00;0.00;;;;;22.32;39.20;99481.31;5079497;27;45729;-68
2023/04/12 06:30:28;;;;;;;;;0.00;0.00;;;;;22.34;39.57;99484.66;5063094;27;46978;-66
2023/04/12 06:32:53;;;;;;;;;0.00;0.00;;;;;22.34;40.06;99482.00;5090566;27;45510;-68
2023/04/12 06:35:20;;;;;;;;;0.50;0.00;;;;;22.35;39.47;99486.34;5094562;27;45473;-67
2023/04/12 06:37:45;;;;;;;;;0.25;0.00;;;;;22.34;39.56;99487.34;5090415;27;45544;-67
2023/04/12 06:40:11;;;;;;;;;0.00;0.00;;;;;22.37;39.79;99497.72;5073032;27;46508;-67
2023/04/12 06:42:37;;;;;;;;;0.50;0.00;;;;;22.34;39.81;99484.66;5073253;27;45516;-66
2023/04/12 06:45:03;;;;;;;;;1.00;0.00;;;;;22.35;39.87;99481.84;5072945;27;45426;-67
2023/04/12 06:47:29;;;;;;;;;2.00;0.00;;;;;22.37;40.18;99469.22;5060608;27;45582;-67
2023/04/12 06:49:56;;;;;;;;;0.00;0.00;;;;;22.39;39.83;99465.56;5078520;27;46302;-67
2023/04/12 06:52:25;;;;;;;;;0.00;0.00;;;;;22.40;39.85;99472.56;5071433;27;45305;-65
2023/04/12 06:54:51;;;;;;;;;0.00;0.00;;;;;22.40;39.75;99475.22;5067244;27;45495;-64
2023/04/12 06:57:16;;;;;;;;;0.50;0.00;;;;;22.41;40.14;99484.91;5068815;27;45376;-65
2023/04/12 06:59:41;;;;;;;;;0.00;0.00;;;;;22.37;39.72;99482.53;5090357;27;46891;-65
2023/04/12 07:02:07;;;;;;;;;0.50;0.00;;;;;22.40;40.00;99493.91;5069778;27;70931;-66
2023/04/12 07:04:32;;;;;;;;;0.00;0.00;;;;;22.40;39.83;99504.56;5095800;27;45443;-66
2023/04/12 07:06:58;;;;;;;;;1.25;0.00;;;;;22.40;39.56;99499.22;5077764;27;45296;-67
2023/04/12 07:09:23;;;;;;;;;0.00;0.00;;;;;22.40;39.85;99486.75;5076144;27;48125;-66
2023/04/12 07:11:48;;;;;;;;;0.25;0.00;;;;;22.40;39.76;99489.41;5071232;27;45490;-66
2023/04/12 07:14:14;;;;;;;;;0.50;0.00;;;;;22.41;39.82;99485.75;5072316;27;60202;-65
2023/04/12 07:16:39;;;;;;;;;0.00;0.00;;;;;22.41;40.37;99482.25;5071520;27;72793;-70
2023/04/12 07:19:05;;;;;;;;;0.00;0.00;;;;;22.42;40.13;99478.63;5092970;27;46099;-66
2023/04/12 07:21:30;;;;;;;;;2.00;0.00;;;;;22.39;39.85;99471.72;5074176;27;45331;-64
2023/04/12 07:23:55;;;;;;;;;0.00;0.00;;;;;22.41;39.69;99463.59;5070881;27;45473;-68
2023/04/12 07:26:21;;;;;;;;;0.00;0.00;;;;;22.39;40.07;99454.91;5089990;27;50763;-65
2023/04/12 07:28:46;;;;;;;;;0.00;0.00;;;;;22.41;39.72;99474.25;5089192;27;45481;-66
2023/04/12 07:31:12;;;;;;;;;0.00;0.00;;;;;22.39;39.82;99471.72;5094173;27;51788;-66
2023/04/12 07:33:37;;;;;;;;;0.50;0.00;;;;;22.42;40.02;99473.28;5077381;27;66893;-66
2023/04/12 07:36:03;;;;;;;;;1.25;0.00;;;;;22.40;40.14;99460.09;5090211;27;46922;-67
2023/04/12 07:38:29;;;;;;;;;0.75;0.00;;;;;22.36;39.82;99450.69;5075181;27;47733;-67
2023/04/12 07:40:55;;;;;;;;;0.00;0.00;;;;;22.42;39.67;99451.97;5086664;27;66063;-67
2023/04/12 07:43:20;;;;;;;;;0.75;0.25;;;;;22.42;39.83;99452.78;5059249;28;45566;-66
2023/04/12 07:45:45;;;;;;;;;0.25;0.00;;;;;22.44;39.76;99452.63;5096225;27;45470;-63
2023/04/12 07:48:11;;;;;;;;;1.50;0.00;;;;;22.44;39.76;99449.97;5059077;27;48123;-67
2023/04/12 07:50:37;;;;;;;;;0.00;0.00;;;;;22.44;39.60;99439.31;5096124;27;45241;-63
2023/04/12 07:53:23;;;;;;;;;0.00;0.00;;;;;22.47;39.73;99437.19;5093778;27;46119;-67
2023/04/12 07:55:48;;;;;;;;;1.00;0.00;;;;;22.47;39.76;99447.00;5081468;27;45601;-65
2023/04/12 07:58:14;;;;;;;;;0.00;0.00;;;;;22.48;39.77;99452.19;5073330;28;45460;-64
2023/04/12 08:00:40;;;;;;;;;0.00;0.00;;;;;22.50;39.67;99449.38;5087002;27;45620;-65
2023/04/12 08:03:05;;;;;;;;;0.00;0.00;;;;;22.49;39.75;99453.88;5080123;27;54557;-63
2023/04/12 08:05:31;;;;;;;;;0.00;0.00;;;;;22.53;40.02;99465.91;5095355;27;45370;-64
2023/04/12 08:07:56;;;;;;;;;0.00;0.00;;;;;22.52;40.11;99466.03;5088585;27;45809;-64
2023/04/12 08:10:22;;;;;;;;;0.00;0.00;;;;;22.54;39.84;99466.72;5090297;27;45411;-63
2023/04/12 08:12:47;;;;;;;;;0.00;0.00;;;;;22.54;40.16;99472.91;5073317;27;69689;-64
2023/04/12 08:15:12;;;;;;;;;1.00;0.00;;;;;22.56;40.28;99483.44;5077626;27;64946;-66
2023/04/12 08:17:38;;;;;;;;;0.00;0.00;;;;;22.58;39.61;99486.78;5093743;27;74424;-65
2023/04/12 08:20:04;;;;;;;;;0.25;0.00;;;;;22.59;39.67;99484.97;5073352;27;70677;-66
2023/04/12 08:22:29;;;;;;;;;0.00;0.00;;;;;22.59;40.25;99492.94;5084682;27;45493;-67
2023/04/12 08:24:54;;;;;;;;;0.25;0.25;;;;;22.60;39.94;99505.31;5092884;27;46814;-65
2023/04/12 08:27:20;;;;;;;;;0.00;0.00;;;;;22.62;39.82;99519.34;5091211;27;45529;-65
2023/04/12 08:29:45;;;;;;;;;2.00;0.00;;;;;22.61;39.57;99513.16;5077479;27;45501;-69
2023/04/12 08:32:11;;;;;;;;;0.00;0.00;;;;;22.64;40.21;99522.69;5069902;27;63183;-67
2023/04/12 08:34:37;;;;;;;;;1.25;0.00;;;;;22.62;39.69;99522.81;5083634;27;45507;-67
2023/04/12 08:37:02;;;;;;;;;0.00;0.00;;;;;22.64;39.70;99520.00;5074458;27;45585;-69
2023/04/12 08:39:30;;;;;;;;;1.00;0.00;;;;;22.64;40.29;99515.50;5097740;27;57551;-65
2023/04/12 08:41:55;;;;;;;;;2.00;0.00;;;;;22.65;39.82;99519.03;5062547;27;45513;-66
2023/04/12 08:44:32;;;;;;;;;0.00;0.00;;;;;22.65;39.92;99517.19;5083033;27;67046;-66
2023/04/12 08:46:58;;;;;;;;;0.50;0.00;;;;;22.60;39.88;99506.13;5068175;27;46345;-66
2023/04/12 08:49:24;;;;;;;;;0.00;0.00;;;;;22.66;39.51;99521.53;5092686;27;45474;-66
2023/04/12 08:51:52;;;;;;;;;0.00;0.00;;;;;22.65;39.83;99524.38;5097197;27;45426;-65
2023/04/12 08:54:17;;;;;;;;;0.00;0.00;;;;;22.67;39.68;99519.72;5082006;27;45545;-66
2023/04/12 08:56:43;;;;;;;;;0.00;0.00;;;;;22.66;39.77;99523.38;5065674;27;58874;-65
2023/04/12 08:59:09;;;;;;;;;0.00;0.00;;;;;22.67;39.66;99527.72;5081674;27;45367;-65
2023/04/12 09:01:35;;;;;;;;;0.25;0.00;;;;;22.66;39.76;99531.38;5091102;27;45458;-65
2023/04/12 09:04:05;;;;;;;;;0.00;0.00;;;;;22.65;39.77;99533.22;5080110;27;69714;-65
2023/04/12 09:06:30;;;;;;;;;0.75;0.00;;;;;22.67;39.69;99533.88;5070442;27;46597;-63
2023/04/12 09:08:56;;;;;;;;;0.00;0.00;;;;;22.66;39.86;99534.03;5073851;27;64168;-64
2023/04/12 09:11:28;;;;;;;;;0.00;0.00;;;;;22.64;39.55;99544.03;5089426;27;45626;-64
2023/04/12 09:13:55;;;;;;;;;1.00;0.00;;;;;22.66;39.50;99536.69;5060228;27;45501;-65
2023/04/12 09:16:34;;;;;;;;;0.00;0.00;;;;;22.66;39.61;99548.19;5101171;27;46468;-66
2023/04/12 09:19:01;;;;;;;;;0.00;0.00;;;;;22.64;39.33;99534.19;5077177;27;45492;-68
2023/04/12 09:21:26;;;;;;;;;0.50;0.25;;;;;22.64;39.64;99533.34;5068358;28;45240;-66
2023/04/12 09:24:08;;;;;;;;;0.00;0.00;;;;;22.66;39.78;99539.38;5092058;27;69102;-67
2023/04/12 09:26:34;;;;;;;;;2.00;0.00;;;;;22.65;39.57;99540.38;5058491;28;48175;-68
2023/04/12 09:28:59;;;;;;;;;1.00;0.00;;;;;22.64;39.85;99534.19;5071167;27;45421;-70
2023/04/12 09:31:25;;;;;;;;;0.00;0.00;;;;;22.63;39.38;99545.84;5065057;27;45505;-67
2023/04/12 09:33:51;;;;;;;;;2.00;0.00;;;;;22.65;39.73;99543.03;5063285;27;45914;-67
2023/04/12 09:36:17;;;;;;;;;0.00;0.00;;;;;22.63;39.42;99537.84;5073605;28;47495;-70
2023/04/12 09:39:03;;;;;;;;;0.00;0.00;;;;;22.65;39.21;99535.03;5091536;27;46283;-66
2023/04/12 09:41:30;;;;;;;;;0.00;0.00;;;;;22.64;39.39;99536.84;5066997;28;45551;-66
2023/04/12 09:43:56;;;;;;;;;0.00;0.00;;;;;22.65;39.26;99545.72;5075107;27;45653;-67
2023/04/12 09:46:22;;;;;;;;;0.00;0.00;;;;;22.67;39.33;99543.72;5072581;27;46570;-68
2023/04/12 09:48:49;;;;;;;;;0.00;0.00;;;;;22.68;39.51;99548.91;5089684;27;70438;-67
2023/04/12 09:51:35;;;;;;;;;0.00;0.00;;;;;22.69;39.16;99555.09;5059562;27;45594;-66
2023/04/12 09:54:03;;;;;;;;;1.75;0.00;;;;;22.72;39.67;99560.97;5093911;27;45454;-66
2023/04/12 09:56:36;;;;;;;;;0.00;0.00;;;;;22.68;39.15;99558.72;5078585;27;45426;-66
2023/04/12 09:59:04;;;;;;;;;0.25;0.00;;;;;22.70;39.29;99546.94;5088000;27;45415;-66
2023/04/12 10:01:35;;;;;;;;;0.00;0.00;;;;;22.74;39.77;99558.97;5054272;27;45442;-66
2023/04/12 10:04:01;;;;;;;;;1.75;0.00;;;;;22.75;39.56;99570.47;5066556;27;45594;-67
2023/04/12 10:06:26;;;;;;;;;0.25;0.00;;;;;22.73;39.12;99551.97;5066578;27;46883;-64
2023/04/12 10:08:53;;;;;;;;;0.00;0.00;;;;;22.78;39.29;99562.19;5077888;27;45492;-65
2023/04/12 10:11:18;;;;;;;;;2.25;0.00;;;;;22.77;39.18;99560.53;5059728;27;45240;-65
2023/04/12 10:13:44;;;;;;;;;1.00;0.00;;;;;22.78;39.36;99556.84;5083566;27;65299;-65
2023/04/12 10:16:10;;;;;;;;;0.00;0.00;;;;;22.79;39.19;99568.34;5076168;27;45459;-65
2023/04/12 10:18:37;;;;;;;;;0.00;0.00;;;;;22.80;39.19;99562.03;5062092;27;45553;-65
2023/04/12 10:21:03;;;;;;;;;0.00;0.00;;;;;22.80;39.26;99560.19;5098290;27;60004;-64
2023/04/12 10:23:31;;;;;;;;;0.00;0.00;;;;;22.81;39.06;99561.06;5088024;27;45517;-63
2023/04/12 10:25:58;;;;;;;;;0.00;0.00;;;;;22.79;39.21;99553.22;5070508;27;46168;-66
2023/04/12 10:28:23;;;;;;;;;0.00;0.00;;;;;22.80;39.51;99562.03;5074623;27;45457;-67
2023/04/12 10:30:50;;;;;;;;;0.00;0.00;;;;;22.81;38.98;99553.88;5068668;27;45237;-67
2023/04/12 10:33:17;;;;;;;;;0.00;0.00;;;;;22.82;39.40;99558.22;5079550;27;45422;-70
2023/04/12 10:36:02;;;;;;;;;4.00;0.00;;;;;22.81;39.42;99556.56;5079227;27;45480;-74
2023/04/12 10:38:31;;;;;;;;;0.00;0.00;;;;;22.81;39.07;99556.56;5061352;28;45514;-69
2023/04/12 10:41:10;;;;;;;;;0.00;0.00;;;;;22.82;38.92;99557.38;5064185;28;45197;-68
2023/04/12 10:43:35;;;;;;;;;3.00;0.00;;;;;22.83;39.23;99549.25;5075954;27;45459;-66
2023/04/12 10:46:03;;;;;;;;;0.00;0.00;;;;;22.84;38.74;99560.75;5065289;28;45438;-67
2023/04/12 10:48:36;;;;;;;;;0.25;0.00;;;;;22.83;38.64;99564.41;5092657;27;45501;-67
2023/04/12 10:51:14;;;;;;;;;0.50;0.50;;;;;22.84;38.84;99561.59;5090284;27;45362;-67
2023/04/12 10:53:39;;;;;;;;;3.00;0.00;;;;;22.82;39.15;99560.88;5076183;27;45480;-68
2023/04/12 10:56:32;;;;;;;;;0.25;0.00;;;;;22.84;39.28;99566.06;5089444;27;46453;-70
2023/04/12 10:58:59;;;;;;;;;3.50;1.25;;;;;22.82;39.17;99571.56;5076103;27;45504;-70
2023/04/12 11:01:25;;;;;;;;;7.50;4.50;;;;;22.81;39.29;99569.06;5080446;27;45459;-69
2023/04/12 11:04:14;;;;;;;;;14.00;10.25;;;;;22.84;39.20;99572.28;5073879;27;46330;-69
2023/04/12 11:07:00;;;;;;;;;23.75;15.00;;;;;22.82;39.23;99571.56;5069354;27;47459;-75
2023/04/12 11:09:38;;;;;;;;;30.00;16.50;;;;;22.80;39.56;99568.19;5073452;27;45817;-75
2023/04/12 11:12:03;;;;;;;;;31.25;21.75;;;;;22.83;39.34;99580.41;5078399;27;45364;-71
2023/04/12 11:14:43;;;;;;;;;33.33;23.33;;;;;22.81;39.17;99567.22;5096659;27;45510;-71
2023/04/12 11:17:08;;;;;;;;;34.50;27.75;;;;;22.82;39.49;99571.56;5062164;27;47281;-72
2023/04/12 11:19:36;;;;;;;;;28.67;24.00;;;;;22.82;39.84;99568.88;5073692;27;45352;-72
2023/04/12 11:22:06;;;;;;;;;24.75;19.75;;;;;22.81;39.50;99580.56;5070568;27;45544;-74
2023/04/12 11:24:32;;;;;;;;;29.50;19.00;;;;;22.81;39.64;99571.72;5076784;27;45488;-74
2023/04/12 11:26:58;;;;;;;;;26.25;18.00;;;;;22.80;39.81;99581.53;5062793;27;45318;-73
2023/04/12 11:29:24;;;;;;;;;27.75;20.00;;;;;22.81;40.00;99569.91;5061763;27;45440;-76
2023/04/12 11:31:50;;;;;;;;;28.25;18.25;;;;;22.79;39.98;99563.00;5066388;27;45451;-72